Ana Sayfa
METAR-TAF:

METAR-TAF

Havaalanları :

Dedeağaç, Yunanistan

Enlem: 40-51N, Boylam: 025-55E, yükseklik: 7 m

Güncel hava durumu gözlemi

Rapor saat 16:50 UTC de 31 dakika önce yapıldı.
Rüzgar doğu/kuzeydoğudan 4 kt
Sıcaklık 29°C
Nem 37%
Basınç 1017 hPa
Görüş mesafesi 10 km veya daha fazla
4000 ft yükseklikte az bulutlu

METAR: LGAL 201650Z 07004KT 9999 FEW040 29/13 Q1017

Saat: 20:21 (17:21 UTC)

Tahmin

Rapor saat 14:00 UTC de 3 saat ve 21 dakika önce yapıldı.
Ayın 20'si saat 15 UTC'den ayın 20'si saat 24 UTC'ye kadar geçerli Tahmin
Rüzgar kuzeydoğudan 12 kt
Görüş mesafesi 10 km veya daha fazla
2000 ft yükseklikte az bulutlu

TAF: LGAL 201400Z 2015/2024 04012KT 9999 FEW020

4.000'den fazla havaalanı için hava durumu gözlemleri ve tahminleri (METAR ve TAF raporları).

Kullanılabilir istasyonlar harita üzerinde sarı ve kırmızı noktalarla gösterilir.

İstasyonun adını görmek için fareyi noktanın üzerinde gezdirin.

Sonrasında hava gözlem ve tahminlerini görmek için tıklayın.

Haritayı değiştirmek için: yaklaştırmak için siyah artı işaretli yeşil düğmeye ve uzaklaştırmak için de eksi işaretli düğmeye hızla tıklayın; bitişik haritalar için yeşil okları kullanın.


METAR-TAF: